<?xml version="1.0" encoding="UTF-8" standalone="no" ?>
<gpx xmlns="http://www.topografix.com/GPX/1/1" xmlns:xsi="http://www.w3.org/2001/XMLSchema-instance" xsi:schemaLocation="http://www.topografix.com/GPX/1/1 http://www.topografix.com/GPX/1/1/gpx.xsd" version="1.1" creator="VisuGPX - https://www.visugpx.com">
  <metadata>
    <name>bonnelles1</name>
    <desc><![CDATA[randonnées pédestre sur la commune de Bonnelles]]></desc>
  </metadata>
  <trk>
    <name><![CDATA[9269899-Bonnelles 13,5 km]]></name>
    <trkseg>
      <trkpt lat="48.61817" lon="2.02369">
        <ele>112</ele>
        <time>2018-11-01T07:27:09Z</time>
      </trkpt>
      <trkpt lat="48.61774" lon="2.02438">
        <ele>112</ele>
        <time>2018-11-01T07:28:09Z</time>
      </trkpt>
      <trkpt lat="48.61686" lon="2.02387">
        <ele>114</ele>
        <time>2018-11-01T07:29:09Z</time>
      </trkpt>
      <trkpt lat="48.61607" lon="2.02352">
        <ele>117</ele>
        <time>2018-11-01T07:30:09Z</time>
      </trkpt>
      <trkpt lat="48.61502" lon="2.02301">
        <ele>114</ele>
        <time>2018-11-01T07:31:09Z</time>
      </trkpt>
      <trkpt lat="48.61416" lon="2.02258">
        <ele>114</ele>
        <time>2018-11-01T07:32:09Z</time>
      </trkpt>
      <trkpt lat="48.613" lon="2.02224">
        <ele>111</ele>
        <time>2018-11-01T07:33:09Z</time>
      </trkpt>
      <trkpt lat="48.61235" lon="2.02155">
        <ele>113</ele>
        <time>2018-11-01T07:34:09Z</time>
      </trkpt>
      <trkpt lat="48.61198" lon="2.02043">
        <ele>113</ele>
        <time>2018-11-01T07:35:09Z</time>
      </trkpt>
      <trkpt lat="48.61125" lon="2.02074">
        <ele>110</ele>
        <time>2018-11-01T07:36:09Z</time>
      </trkpt>
      <trkpt lat="48.61168" lon="2.02169">
        <ele>111</ele>
        <time>2018-11-01T07:37:09Z</time>
      </trkpt>
      <trkpt lat="48.61206" lon="2.02294">
        <ele>114</ele>
        <time>2018-11-01T07:38:09Z</time>
      </trkpt>
      <trkpt lat="48.61212" lon="2.02409">
        <ele>115</ele>
        <time>2018-11-01T07:39:09Z</time>
      </trkpt>
      <trkpt lat="48.61206" lon="2.026">
        <ele>110</ele>
        <time>2018-11-01T07:40:09Z</time>
      </trkpt>
      <trkpt lat="48.61125" lon="2.02597">
        <ele>110</ele>
        <time>2018-11-01T07:41:09Z</time>
      </trkpt>
      <trkpt lat="48.61055" lon="2.02608">
        <ele>108</ele>
        <time>2018-11-01T07:42:09Z</time>
      </trkpt>
      <trkpt lat="48.60952" lon="2.02582">
        <ele>105</ele>
        <time>2018-11-01T07:43:09Z</time>
      </trkpt>
      <trkpt lat="48.60873" lon="2.02526">
        <ele>103</ele>
        <time>2018-11-01T07:44:09Z</time>
      </trkpt>
      <trkpt lat="48.60809" lon="2.02577">
        <ele>107</ele>
        <time>2018-11-01T07:45:09Z</time>
      </trkpt>
      <trkpt lat="48.6072" lon="2.02375">
        <ele>110</ele>
        <time>2018-11-01T07:46:09Z</time>
      </trkpt>
      <trkpt lat="48.60666" lon="2.02258">
        <ele>109</ele>
        <time>2018-11-01T07:47:09Z</time>
      </trkpt>
      <trkpt lat="48.60603" lon="2.02102">
        <ele>114</ele>
        <time>2018-11-01T07:48:09Z</time>
      </trkpt>
      <trkpt lat="48.60568" lon="2.02059">
        <ele>117</ele>
        <time>2018-11-01T07:49:09Z</time>
      </trkpt>
      <trkpt lat="48.60542" lon="2.02041">
        <ele>118</ele>
        <time>2018-11-01T07:50:09Z</time>
      </trkpt>
      <trkpt lat="48.60477" lon="2.01965">
        <ele>116</ele>
        <time>2018-11-01T07:51:09Z</time>
      </trkpt>
      <trkpt lat="48.60409" lon="2.01911">
        <ele>117</ele>
        <time>2018-11-01T07:52:09Z</time>
      </trkpt>
      <trkpt lat="48.60362" lon="2.01832">
        <ele>120</ele>
        <time>2018-11-01T07:53:09Z</time>
      </trkpt>
      <trkpt lat="48.60347" lon="2.01771">
        <ele>117</ele>
        <time>2018-11-01T07:54:09Z</time>
      </trkpt>
      <trkpt lat="48.60316" lon="2.01717">
        <ele>116</ele>
        <time>2018-11-01T07:55:09Z</time>
      </trkpt>
      <trkpt lat="48.60247" lon="2.01661">
        <ele>117</ele>
        <time>2018-11-01T07:56:09Z</time>
      </trkpt>
      <trkpt lat="48.60173" lon="2.01587">
        <ele>118</ele>
        <time>2018-11-01T07:57:09Z</time>
      </trkpt>
      <trkpt lat="48.6009" lon="2.01495">
        <ele>121</ele>
        <time>2018-11-01T07:58:09Z</time>
      </trkpt>
      <trkpt lat="48.60033" lon="2.01398">
        <ele>117</ele>
        <time>2018-11-01T07:59:09Z</time>
      </trkpt>
      <trkpt lat="48.59943" lon="2.01357">
        <ele>112</ele>
        <time>2018-11-01T08:00:09Z</time>
      </trkpt>
      <trkpt lat="48.59857" lon="2.01347">
        <ele>112</ele>
        <time>2018-11-01T08:01:09Z</time>
      </trkpt>
      <trkpt lat="48.59798" lon="2.01329">
        <ele>111</ele>
        <time>2018-11-01T08:02:09Z</time>
      </trkpt>
      <trkpt lat="48.59657" lon="2.01255">
        <ele>103</ele>
        <time>2018-11-01T08:03:09Z</time>
      </trkpt>
      <trkpt lat="48.59655" lon="2.01222">
        <ele>102</ele>
        <time>2018-11-01T08:04:09Z</time>
      </trkpt>
      <trkpt lat="48.59808" lon="2.01064">
        <ele>93</ele>
        <time>2018-11-01T08:05:09Z</time>
      </trkpt>
      <trkpt lat="48.59997" lon="2.00857">
        <ele>99</ele>
        <time>2018-11-01T08:06:09Z</time>
      </trkpt>
      <trkpt lat="48.60065" lon="2.00778">
        <ele>102</ele>
        <time>2018-11-01T08:07:09Z</time>
      </trkpt>
      <trkpt lat="48.60013" lon="2.00735">
        <ele>100</ele>
        <time>2018-11-01T08:08:09Z</time>
      </trkpt>
      <trkpt lat="48.59964" lon="2.00694">
        <ele>96</ele>
        <time>2018-11-01T08:09:09Z</time>
      </trkpt>
      <trkpt lat="48.59952" lon="2.00653">
        <ele>95</ele>
        <time>2018-11-01T08:10:09Z</time>
      </trkpt>
      <trkpt lat="48.59984" lon="2.00581">
        <ele>97</ele>
        <time>2018-11-01T08:11:09Z</time>
      </trkpt>
      <trkpt lat="48.60026" lon="2.0049">
        <ele>97</ele>
        <time>2018-11-01T08:12:09Z</time>
      </trkpt>
      <trkpt lat="48.60045" lon="2.00423">
        <ele>98</ele>
        <time>2018-11-01T08:13:09Z</time>
      </trkpt>
      <trkpt lat="48.60092" lon="2.00377">
        <ele>99</ele>
        <time>2018-11-01T08:14:09Z</time>
      </trkpt>
      <trkpt lat="48.60104" lon="2.00314">
        <ele>97</ele>
        <time>2018-11-01T08:15:09Z</time>
      </trkpt>
      <trkpt lat="48.6017" lon="2.00296">
        <ele>100</ele>
        <time>2018-11-01T08:16:09Z</time>
      </trkpt>
      <trkpt lat="48.60222" lon="2.00359">
        <ele>106</ele>
        <time>2018-11-01T08:17:09Z</time>
      </trkpt>
      <trkpt lat="48.60313" lon="2.0037">
        <ele>108</ele>
        <time>2018-11-01T08:18:09Z</time>
      </trkpt>
      <trkpt lat="48.60374" lon="2.0039">
        <ele>110</ele>
        <time>2018-11-01T08:19:09Z</time>
      </trkpt>
      <trkpt lat="48.60428" lon="2.00339">
        <ele>113</ele>
        <time>2018-11-01T08:20:09Z</time>
      </trkpt>
      <trkpt lat="48.60419" lon="2.00252">
        <ele>113</ele>
        <time>2018-11-01T08:21:09Z</time>
      </trkpt>
      <trkpt lat="48.60429" lon="2.00143">
        <ele>116</ele>
        <time>2018-11-01T08:22:09Z</time>
      </trkpt>
      <trkpt lat="48.60451" lon="2.00053">
        <ele>117</ele>
        <time>2018-11-01T08:23:09Z</time>
      </trkpt>
      <trkpt lat="48.6046" lon="1.99987">
        <ele>115</ele>
        <time>2018-11-01T08:24:09Z</time>
      </trkpt>
      <trkpt lat="48.60497" lon="1.99933">
        <ele>113</ele>
        <time>2018-11-01T08:25:09Z</time>
      </trkpt>
      <trkpt lat="48.60512" lon="1.99826">
        <ele>115</ele>
        <time>2018-11-01T08:26:09Z</time>
      </trkpt>
      <trkpt lat="48.60524" lon="1.99742">
        <ele>114</ele>
        <time>2018-11-01T08:27:09Z</time>
      </trkpt>
      <trkpt lat="48.60656" lon="1.99788">
        <ele>123</ele>
        <time>2018-11-01T08:28:09Z</time>
      </trkpt>
      <trkpt lat="48.60824" lon="1.99796">
        <ele>126</ele>
        <time>2018-11-01T08:29:09Z</time>
      </trkpt>
      <trkpt lat="48.6092" lon="1.99857">
        <ele>129</ele>
        <time>2018-11-01T08:30:09Z</time>
      </trkpt>
      <trkpt lat="48.61074" lon="1.99864">
        <ele>128</ele>
        <time>2018-11-01T08:31:09Z</time>
      </trkpt>
      <trkpt lat="48.61224" lon="1.99928">
        <ele>128</ele>
        <time>2018-11-01T08:32:09Z</time>
      </trkpt>
      <trkpt lat="48.61357" lon="2.00053">
        <ele>131</ele>
        <time>2018-11-01T08:33:09Z</time>
      </trkpt>
      <trkpt lat="48.61379" lon="2">
        <ele>129</ele>
        <time>2018-11-01T08:34:09Z</time>
      </trkpt>
      <trkpt lat="48.61491" lon="2.00056">
        <ele>122</ele>
        <time>2018-11-01T08:35:09Z</time>
      </trkpt>
      <trkpt lat="48.61536" lon="2.00081">
        <ele>121</ele>
        <time>2018-11-01T08:36:09Z</time>
      </trkpt>
      <trkpt lat="48.61585" lon="2.00247">
        <ele>125</ele>
        <time>2018-11-01T08:37:09Z</time>
      </trkpt>
      <trkpt lat="48.61619" lon="2.004">
        <ele>131</ele>
        <time>2018-11-01T08:38:09Z</time>
      </trkpt>
      <trkpt lat="48.61735" lon="2.0062">
        <ele>128</ele>
        <time>2018-11-01T08:39:09Z</time>
      </trkpt>
      <trkpt lat="48.61885" lon="2.00908">
        <ele>125</ele>
        <time>2018-11-01T08:40:09Z</time>
      </trkpt>
      <trkpt lat="48.61938" lon="2.01">
        <ele>126</ele>
        <time>2018-11-01T08:41:09Z</time>
      </trkpt>
      <trkpt lat="48.61992" lon="2.01156">
        <ele>131</ele>
        <time>2018-11-01T08:42:09Z</time>
      </trkpt>
      <trkpt lat="48.62063" lon="2.01191">
        <ele>131</ele>
        <time>2018-11-01T08:43:09Z</time>
      </trkpt>
      <trkpt lat="48.62253" lon="2.01064">
        <ele>136</ele>
        <time>2018-11-01T08:44:09Z</time>
      </trkpt>
      <trkpt lat="48.62226" lon="2.0102">
        <ele>132</ele>
        <time>2018-11-01T08:45:09Z</time>
      </trkpt>
      <trkpt lat="48.62211" lon="2.00936">
        <ele>128</ele>
        <time>2018-11-01T08:46:09Z</time>
      </trkpt>
      <trkpt lat="48.62209" lon="2.00849">
        <ele>122</ele>
        <time>2018-11-01T08:47:09Z</time>
      </trkpt>
      <trkpt lat="48.62213" lon="2.00809">
        <ele>121</ele>
        <time>2018-11-01T08:48:09Z</time>
      </trkpt>
      <trkpt lat="48.62304" lon="2.00819">
        <ele>123</ele>
        <time>2018-11-01T08:49:09Z</time>
      </trkpt>
      <trkpt lat="48.6238" lon="2.00786">
        <ele>124</ele>
        <time>2018-11-01T08:50:09Z</time>
      </trkpt>
      <trkpt lat="48.62405" lon="2.00673">
        <ele>123</ele>
        <time>2018-11-01T08:51:09Z</time>
      </trkpt>
      <trkpt lat="48.62408" lon="2.00454">
        <ele>129</ele>
        <time>2018-11-01T08:52:09Z</time>
      </trkpt>
      <trkpt lat="48.62337" lon="2.00245">
        <ele>127</ele>
        <time>2018-11-01T08:53:09Z</time>
      </trkpt>
      <trkpt lat="48.62283" lon="2.00071">
        <ele>122</ele>
        <time>2018-11-01T08:54:09Z</time>
      </trkpt>
      <trkpt lat="48.62246" lon="1.99709">
        <ele>114</ele>
        <time>2018-11-01T08:55:09Z</time>
      </trkpt>
      <trkpt lat="48.62326" lon="1.9964">
        <ele>109</ele>
        <time>2018-11-01T08:56:09Z</time>
      </trkpt>
      <trkpt lat="48.6242" lon="1.99678">
        <ele>109</ele>
        <time>2018-11-01T08:57:09Z</time>
      </trkpt>
      <trkpt lat="48.62503" lon="1.99778">
        <ele>114</ele>
        <time>2018-11-01T08:58:09Z</time>
      </trkpt>
      <trkpt lat="48.62525" lon="1.99867">
        <ele>116</ele>
        <time>2018-11-01T08:59:09Z</time>
      </trkpt>
      <trkpt lat="48.62599" lon="1.99954">
        <ele>117</ele>
        <time>2018-11-01T09:00:09Z</time>
      </trkpt>
      <trkpt lat="48.62759" lon="2.00033">
        <ele>122</ele>
        <time>2018-11-01T09:01:09Z</time>
      </trkpt>
      <trkpt lat="48.62805" lon="2.00104">
        <ele>122</ele>
        <time>2018-11-01T09:02:09Z</time>
      </trkpt>
      <trkpt lat="48.62921" lon="2.00145">
        <ele>126</ele>
        <time>2018-11-01T09:03:09Z</time>
      </trkpt>
      <trkpt lat="48.62919" lon="2.00199">
        <ele>126</ele>
        <time>2018-11-01T09:04:09Z</time>
      </trkpt>
      <trkpt lat="48.62933" lon="2.00263">
        <ele>129</ele>
        <time>2018-11-01T09:05:09Z</time>
      </trkpt>
      <trkpt lat="48.62911" lon="2.00418">
        <ele>134</ele>
        <time>2018-11-01T09:06:09Z</time>
      </trkpt>
      <trkpt lat="48.6286" lon="2.00502">
        <ele>134</ele>
        <time>2018-11-01T09:07:09Z</time>
      </trkpt>
      <trkpt lat="48.6283" lon="2.00635">
        <ele>134</ele>
        <time>2018-11-01T09:08:09Z</time>
      </trkpt>
      <trkpt lat="48.62771" lon="2.00796">
        <ele>129</ele>
        <time>2018-11-01T09:09:09Z</time>
      </trkpt>
      <trkpt lat="48.62732" lon="2.00982">
        <ele>134</ele>
        <time>2018-11-01T09:10:09Z</time>
      </trkpt>
      <trkpt lat="48.6269" lon="2.01013">
        <ele>136</ele>
        <time>2018-11-01T09:11:09Z</time>
      </trkpt>
      <trkpt lat="48.62624" lon="2.01128">
        <ele>140</ele>
        <time>2018-11-01T09:12:09Z</time>
      </trkpt>
      <trkpt lat="48.6256" lon="2.01273">
        <ele>144</ele>
        <time>2018-11-01T09:13:09Z</time>
      </trkpt>
      <trkpt lat="48.62503" lon="2.0139">
        <ele>144</ele>
        <time>2018-11-01T09:14:09Z</time>
      </trkpt>
      <trkpt lat="48.62456" lon="2.01505">
        <ele>143</ele>
        <time>2018-11-01T09:15:09Z</time>
      </trkpt>
      <trkpt lat="48.62429" lon="2.01633">
        <ele>139</ele>
        <time>2018-11-01T09:16:09Z</time>
      </trkpt>
      <trkpt lat="48.62398" lon="2.01684">
        <ele>134</ele>
        <time>2018-11-01T09:17:09Z</time>
      </trkpt>
      <trkpt lat="48.62373" lon="2.01758">
        <ele>131</ele>
        <time>2018-11-01T09:18:09Z</time>
      </trkpt>
      <trkpt lat="48.62324" lon="2.01753">
        <ele>130</ele>
        <time>2018-11-01T09:19:09Z</time>
      </trkpt>
      <trkpt lat="48.62285" lon="2.01663">
        <ele>129</ele>
        <time>2018-11-01T09:20:09Z</time>
      </trkpt>
      <trkpt lat="48.6225" lon="2.01656">
        <ele>129</ele>
        <time>2018-11-01T09:21:09Z</time>
      </trkpt>
      <trkpt lat="48.62236" lon="2.01722">
        <ele>130</ele>
        <time>2018-11-01T09:22:09Z</time>
      </trkpt>
      <trkpt lat="48.62137" lon="2.01669">
        <ele>127</ele>
        <time>2018-11-01T09:23:09Z</time>
      </trkpt>
      <trkpt lat="48.61916" lon="2.0163">
        <ele>124</ele>
        <time>2018-11-01T09:24:09Z</time>
      </trkpt>
      <trkpt lat="48.61791" lon="2.01566">
        <ele>122</ele>
        <time>2018-11-01T09:25:09Z</time>
      </trkpt>
      <trkpt lat="48.61686" lon="2.01549">
        <ele>123</ele>
        <time>2018-11-01T09:26:09Z</time>
      </trkpt>
      <trkpt lat="48.61556" lon="2.01513">
        <ele>127</ele>
        <time>2018-11-01T09:27:09Z</time>
      </trkpt>
      <trkpt lat="48.61415" lon="2.01536">
        <ele>124</ele>
        <time>2018-11-01T09:28:09Z</time>
      </trkpt>
      <trkpt lat="48.61337" lon="2.01533">
        <ele>123</ele>
        <time>2018-11-01T09:29:09Z</time>
      </trkpt>
      <trkpt lat="48.61287" lon="2.01681">
        <ele>120</ele>
        <time>2018-11-01T09:30:09Z</time>
      </trkpt>
      <trkpt lat="48.61254" lon="2.01753">
        <ele>118</ele>
        <time>2018-11-01T09:31:09Z</time>
      </trkpt>
      <trkpt lat="48.61302" lon="2.01801">
        <ele>118</ele>
        <time>2018-11-01T09:32:09Z</time>
      </trkpt>
      <trkpt lat="48.61393" lon="2.01942">
        <ele>113</ele>
        <time>2018-11-01T09:33:09Z</time>
      </trkpt>
      <trkpt lat="48.61455" lon="2.02021">
        <ele>113</ele>
        <time>2018-11-01T09:34:09Z</time>
      </trkpt>
      <trkpt lat="48.61543" lon="2.0209">
        <ele>111</ele>
        <time>2018-11-01T09:35:09Z</time>
      </trkpt>
      <trkpt lat="48.61659" lon="2.02136">
        <ele>113</ele>
        <time>2018-11-01T09:36:09Z</time>
      </trkpt>
      <trkpt lat="48.61708" lon="2.0224">
        <ele>112</ele>
        <time>2018-11-01T09:37:09Z</time>
      </trkpt>
      <trkpt lat="48.61742" lon="2.02304">
        <ele>111</ele>
        <time>2018-11-01T09:38:09Z</time>
      </trkpt>
      <trkpt lat="48.61847" lon="2.02324">
        <ele>112</ele>
        <time>2018-11-01T09:39:09Z</time>
      </trkpt>
    </trkseg>
  </trk>
</gpx>